Time;durP1;ratioP1;P1;durP2;ratioP2;P2;SDS_P1;SDS_P2;PMS_P1;PMS_P2;Temp;Humidity;BMP_temperature;BMP_pressure;BME280_temperature;BME280_humidity;BME280_pressure;Samples;Min_cycle;Max_cycle;Signal;HPM_P1;HPM_P2
2024/01/30 00:01:34;;;;;;;16.93;8.90;;;;;;;17.66;45.21;102607.72;5033002;28;20128;-78
2024/01/30 00:04:00;;;;;;;22.80;10.00;;;;;;;17.90;44.30;102606.50;5043324;28;20029;-77
2024/01/30 00:06:25;;;;;;;16.70;9.50;;;;;;;17.51;45.82;102609.63;5049117;28;20026;-77
2024/01/30 00:08:50;;;;;;;18.37;9.20;;;;;;;18.06;44.57;102594.88;5051589;28;20389;-77
2024/01/30 00:11:16;;;;;;;18.47;10.10;;;;;;;17.32;46.75;102602.78;5047901;28;20108;-77
2024/01/30 00:13:41;;;;;;;17.27;10.00;;;;;;;17.36;46.42;102604.50;5043046;28;20057;-77
2024/01/30 00:16:09;;;;;;;18.60;8.97;;;;;;;17.20;46.80;102604.66;5049107;28;20387;-77
2024/01/30 00:18:34;;;;;;;18.63;8.83;;;;;;;17.76;45.43;102599.66;5046192;28;20036;-77
2024/01/30 00:20:59;;;;;;;16.27;9.00;;;;;;;17.98;44.97;102594.09;5044814;28;20029;-78
2024/01/30 00:23:25;;;;;;;18.40;9.13;;;;;;;17.99;44.60;102593.22;5061740;28;20137;-77
2024/01/30 00:25:50;;;;;;;19.13;8.83;;;;;;;17.57;45.72;102598.97;5050898;28;20076;-77
2024/01/30 00:28:16;;;;;;;19.03;9.17;;;;;;;18.08;44.35;102595.75;5049940;28;20060;-77
2024/01/30 00:30:41;;;;;;;18.73;8.87;;;;;;;17.93;44.80;102601.25;5057768;28;20040;-78
2024/01/30 00:33:08;;;;;;;13.90;7.53;;;;;;;18.13;44.50;102598.31;5052479;28;20021;-77
2024/01/30 00:35:33;;;;;;;20.87;9.00;;;;;;;17.79;45.16;102593.41;5049455;28;20362;-77
2024/01/30 00:37:58;;;;;;;17.77;8.90;;;;;;;16.71;47.06;102574.22;5051088;28;20033;-78
2024/01/30 00:40:24;;;;;;;16.60;8.37;;;;;;;17.85;45.35;102563.41;5050350;28;20037;-77
2024/01/30 00:42:49;;;;;;;19.97;8.43;;;;;;;17.85;45.76;102571.34;5043805;28;20040;-77
2024/01/30 00:45:16;;;;;;;20.93;8.83;;;;;;;17.28;46.71;102575.50;5043785;28;20083;-78
2024/01/30 00:47:41;;;;;;;18.43;9.03;;;;;;;17.55;45.85;102568.16;5060788;28;20036;-78
2024/01/30 00:50:07;;;;;;;14.50;8.00;;;;;;;17.27;46.96;102573.78;5050357;28;20053;-77
2024/01/30 00:52:33;;;;;;;16.37;8.57;;;;;;;17.03;46.30;102570.47;5039041;28;20030;-78
2024/01/30 00:54:59;;;;;;;15.23;8.07;;;;;;;17.68;45.58;102574.16;5058636;28;20058;-77
2024/01/30 00:57:24;;;;;;;17.13;8.57;;;;;;;18.07;45.01;102580.75;5037409;28;20473;-77
2024/01/30 00:59:50;;;;;;;15.83;8.53;;;;;;;18.47;43.92;102597.81;5047890;28;20037;-78
2024/01/30 01:02:17;;;;;;;14.97;8.17;;;;;;;18.39;43.89;102595.28;5037902;28;20392;-78
2024/01/30 01:04:42;;;;;;;17.53;8.57;;;;;;;18.29;43.63;102598.97;5041001;28;20039;-77
2024/01/30 01:07:08;;;;;;;19.67;9.00;;;;;;;18.25;43.76;102586.69;5032054;28;20030;-77
2024/01/30 01:09:33;;;;;;;19.67;8.77;;;;;;;18.49;43.54;102590.72;5039849;28;20036;-77
2024/01/30 01:11:58;;;;;;;16.23;8.17;;;;;;;18.69;42.87;102586.91;5045834;28;20039;-77
2024/01/30 01:14:24;;;;;;;16.67;9.23;;;;;;;18.44;43.05;102585.50;5038298;28;20044;-78
2024/01/30 01:16:49;;;;;;;13.83;7.57;;;;;;;18.62;42.69;102575.53;5051315;28;20131;-78
2024/01/30 01:19:15;;;;;;;13.90;7.33;;;;;;;18.27;43.27;102574.28;5050822;28;20079;-78
2024/01/30 01:21:40;;;;;;;16.13;8.07;;;;;;;17.90;44.17;102574.78;5050307;28;20064;-78
2024/01/30 01:24:05;;;;;;;15.00;8.23;;;;;;;17.96;43.78;102569.44;5050728;28;20036;-76
2024/01/30 01:26:31;;;;;;;17.93;8.40;;;;;;;18.09;43.83;102560.44;5041695;28;20029;-77
2024/01/30 01:28:56;;;;;;;14.20;7.43;;;;;;;18.39;43.00;102566.16;5032692;28;20650;-78
2024/01/30 01:31:24;;;;;;;15.57;7.50;;;;;;;17.92;43.71;102568.59;5047842;28;20037;-78
2024/01/30 01:33:50;;;;;;;13.63;7.33;;;;;;;18.25;43.42;102565.50;5030321;28;20037;-77
2024/01/30 01:36:15;;;;;;;11.83;7.33;;;;;;;18.13;43.63;102562.16;5050745;28;20036;-78
2024/01/30 01:38:40;;;;;;;13.27;7.37;;;;;;;18.56;42.80;102544.75;5049042;28;20130;-77
2024/01/30 01:41:06;;;;;;;14.10;7.27;;;;;;;18.31;43.38;102565.41;5046503;28;20033;-77
2024/01/30 01:43:31;;;;;;;15.83;8.53;;;;;;;18.32;43.44;102564.50;5045440;28;20032;-77
2024/01/30 01:45:57;;;;;;;13.77;7.57;;;;;;;18.75;42.35;102561.19;5031394;28;20148;-77
2024/01/30 01:48:22;;;;;;;17.17;7.27;;;;;;;18.01;43.34;102546.47;5044537;28;20040;-76
2024/01/30 01:50:48;;;;;;;14.97;7.50;;;;;;;17.67;44.19;102552.16;5046843;28;20348;-78
2024/01/30 01:53:15;;;;;;;16.80;7.63;;;;;;;18.14;43.42;102561.22;5031438;28;20094;-77
2024/01/30 01:55:40;;;;;;;13.60;6.50;;;;;;;18.17;43.67;102575.34;5046979;28;20033;-77
2024/01/30 01:58:08;;;;;;;17.20;8.20;;;;;;;18.51;43.55;102586.28;5049669;28;20028;-77
2024/01/30 02:00:35;;;;;;;16.40;7.67;;;;;;;18.69;42.61;102573.66;5043826;28;20056;-78
2024/01/30 02:03:04;;;;;;;17.20;7.90;;;;;;;18.17;43.49;102567.41;5049020;28;20029;-77
2024/01/30 02:05:30;;;;;;;15.97;7.77;;;;;;;18.60;42.69;102561.44;5049390;28;20032;-78
2024/01/30 02:07:56;;;;;;;16.93;8.63;;;;;;;18.52;43.03;102563.31;5048719;28;20029;-78
2024/01/30 02:10:21;;;;;;;14.83;7.03;;;;;;;18.30;43.52;102553.09;5045789;28;20021;-77
2024/01/30 02:12:47;;;;;;;11.67;6.77;;;;;;;18.58;42.75;102547.34;5044925;28;20021;-77
2024/01/30 02:15:14;;;;;;;17.53;7.57;;;;;;;18.68;43.03;102548.94;5041377;28;20492;-77
2024/01/30 02:17:39;;;;;;;13.47;6.63;;;;;;;18.53;43.50;102539.47;5029951;28;20037;-77
2024/01/30 02:20:05;;;;;;;14.07;7.67;;;;;;;18.58;43.08;102539.41;5035839;28;20029;-78
2024/01/30 02:22:34;;;;;;;13.53;6.93;;;;;;;17.49;44.95;102531.22;5041497;28;20022;-78
2024/01/30 02:24:59;;;;;;;14.47;6.73;;;;;;;18.00;44.32;102539.41;5048385;28;20028;-78
2024/01/30 02:27:25;;;;;;;16.63;7.33;;;;;;;18.29;43.85;102535.47;5050346;28;20504;-77
2024/01/30 02:29:50;;;;;;;12.17;6.60;;;;;;;18.51;43.15;102540.41;5049209;28;20021;-78
2024/01/30 02:32:15;;;;;;;14.33;7.30;;;;;;;18.17;43.79;102543.59;5046088;28;20117;-77
2024/01/30 02:34:41;;;;;;;14.30;6.80;;;;;;;18.62;43.12;102543.75;5036119;28;20021;-77
2024/01/30 02:37:06;;;;;;;15.00;7.40;;;;;;;18.80;42.63;102548.72;5038019;28;20049;-78
2024/01/30 02:39:32;;;;;;;13.10;6.70;;;;;;;18.58;43.02;102547.34;5029902;28;20544;-77
2024/01/30 02:41:57;;;;;;;11.03;6.73;;;;;;;18.79;42.86;102547.00;5036417;28;20022;-78
2024/01/30 02:44:22;;;;;;;15.33;7.50;;;;;;;18.47;43.67;102539.59;5046732;28;20494;-77
2024/01/30 02:46:48;;;;;;;17.40;6.77;;;;;;;18.46;43.76;102538.72;5041476;28;20068;-77
2024/01/30 02:49:13;;;;;;;11.20;6.53;;;;;;;18.26;43.76;102536.38;5029702;28;20055;-77
2024/01/30 02:51:38;;;;;;;14.53;7.37;;;;;;;18.35;43.39;102540.63;5043569;28;20431;-77
2024/01/30 02:54:04;;;;;;;12.40;6.23;;;;;;;18.20;44.25;102532.94;5034039;28;20099;-78
2024/01/30 02:56:29;;;;;;;13.33;6.43;;;;;;;18.59;43.25;102534.09;5041899;28;20370;-78
2024/01/30 02:58:55;;;;;;;13.77;6.53;;;;;;;18.70;43.22;102520.66;5034110;28;20021;-77
2024/01/30 03:01:20;;;;;;;12.10;6.27;;;;;;;17.69;45.14;102521.25;5044335;28;20499;-77
2024/01/30 03:03:45;;;;;;;12.70;6.87;;;;;;;18.07;44.49;102522.53;5053078;28;20071;-78
2024/01/30 03:06:11;;;;;;;12.10;7.07;;;;;;;18.21;44.25;102510.88;5058790;28;20099;-77
2024/01/30 03:08:37;;;;;;;12.00;6.30;;;;;;;18.14;44.70;102510.97;5046201;28;20022;-77
2024/01/30 03:11:02;;;;;;;12.90;5.93;;;;;;;18.14;44.46;102503.03;5052163;28;20035;-78
2024/01/30 03:13:31;;;;;;;11.77;6.40;;;;;;;18.06;45.25;102496.09;5051811;28;20444;-78
2024/01/30 03:15:57;;;;;;;11.33;5.80;;;;;;;17.80;46.05;102498.22;5051018;28;20021;-78
2024/01/30 03:18:22;;;;;;;13.90;7.23;;;;;;;18.28;44.45;102512.53;5052924;28;20028;-77
2024/01/30 03:20:47;;;;;;;12.87;6.57;;;;;;;18.42;44.48;102507.91;5062145;28;20194;-78
2024/01/30 03:23:13;;;;;;;13.03;6.93;;;;;;;18.17;44.48;102509.19;5033871;28;20110;-78
2024/01/30 03:25:38;;;;;;;17.03;6.60;;;;;;;18.30;44.29;102508.97;5036045;28;20025;-77
2024/01/30 03:28:04;;;;;;;13.90;6.60;;;;;;;18.35;44.75;102503.59;5053344;28;20028;-78
2024/01/30 03:30:29;;;;;;;13.80;6.10;;;;;;;18.78;43.85;102508.16;5034021;28;20112;-78
2024/01/30 03:32:54;;;;;;;11.80;6.23;;;;;;;18.27;44.30;102505.47;5051998;28;20111;-78
2024/01/30 03:35:20;;;;;;;14.30;7.27;;;;;;;17.98;44.91;102509.44;5052806;28;20089;-78
2024/01/30 03:37:45;;;;;;;16.73;7.37;;;;;;;18.25;44.39;102507.28;5049567;28;20029;-78
2024/01/30 03:40:11;;;;;;;12.10;6.87;;;;;;;17.77;45.59;102511.47;5035888;28;20017;-78
2024/01/30 03:42:36;;;;;;;12.67;6.50;;;;;;;18.18;44.42;102521.53;5048333;28;20502;-77
2024/01/30 03:45:02;;;;;;;13.07;6.30;;;;;;;18.03;44.95;102507.59;5046274;28;20112;-77
2024/01/30 03:47:27;;;;;;;15.03;6.87;;;;;;;18.21;44.21;102513.53;5048623;28;20477;-77
2024/01/30 03:49:53;;;;;;;12.03;5.97;;;;;;;18.15;44.86;102506.56;5047910;28;20787;-78
2024/01/30 03:52:18;;;;;;;12.73;6.73;;;;;;;18.21;44.82;102508.25;5047771;28;20075;-77
2024/01/30 03:54:43;;;;;;;11.40;6.57;;;;;;;17.92;45.51;102509.53;5048054;28;20496;-77
2024/01/30 03:57:09;;;;;;;12.60;6.67;;;;;;;18.51;44.27;102509.50;5048127;28;20474;-78
2024/01/30 03:59:34;;;;;;;16.97;6.50;;;;;;;18.73;43.58;102496.78;5050864;28;20055;-78
2024/01/30 04:02:00;;;;;;;14.57;6.67;;;;;;;17.74;46.28;102500.06;5046542;28;20017;-78
2024/01/30 04:04:25;;;;;;;12.57;7.07;;;;;;;18.70;43.82;102498.59;5048307;28;20481;-78
2024/01/30 04:06:50;;;;;;;10.50;6.27;;;;;;;18.60;44.08;102505.81;5047999;28;20060;-77
2024/01/30 04:09:16;;;;;;;13.33;6.70;;;;;;;18.16;45.18;102497.69;5038784;28;20440;-77
2024/01/30 04:11:41;;;;;;;13.77;6.80;;;;;;;18.40;44.22;102480.56;5048429;28;20032;-78
2024/01/30 04:14:07;;;;;;;15.03;6.47;;;;;;;18.52;44.87;102489.19;5050996;28;20484;-77
2024/01/30 04:16:33;;;;;;;15.10;6.03;;;;;;;18.70;44.37;102491.53;5051035;28;20075;-77
2024/01/30 04:18:58;;;;;;;10.33;6.40;;;;;;;17.97;45.95;102498.00;5049324;28;20029;-77
2024/01/30 04:21:23;;;;;;;10.23;5.80;;;;;;;17.81;46.63;102496.44;5050072;28;20102;-78
2024/01/30 04:23:51;;;;;;;12.93;6.17;;;;;;;18.19;45.65;102494.13;5045764;28;20048;-77
2024/01/30 04:26:16;;;;;;;13.33;6.37;;;;;;;18.37;45.03;102485.91;5051208;28;20031;-77
2024/01/30 04:28:42;;;;;;;10.80;6.10;;;;;;;18.80;44.05;102490.44;5047448;28;20405;-77
2024/01/30 04:31:07;;;;;;;13.43;6.50;;;;;;;18.39;44.76;102484.09;5052214;28;20021;-77
2024/01/30 04:33:33;;;;;;;12.07;5.47;;;;;;;19.09;43.53;102481.09;5048160;28;20025;-78
2024/01/30 04:35:58;;;;;;;10.20;6.17;;;;;;;18.43;44.61;102485.78;5047702;28;20029;-77
2024/01/30 04:38:24;;;;;;;11.67;6.33;;;;;;;18.78;44.15;102481.69;5049739;28;20132;-78
2024/01/30 04:40:49;;;;;;;12.77;5.90;;;;;;;18.79;43.70;102475.47;5040172;28;20025;-77
2024/01/30 04:43:15;;;;;;;12.73;6.93;;;;;;;18.79;43.57;102487.84;5040984;28;20507;-78
2024/01/30 04:45:41;;;;;;;13.73;6.30;;;;;;;18.47;44.99;102476.91;5048671;28;20025;-77
2024/01/30 04:48:06;;;;;;;12.57;6.33;;;;;;;19.10;43.44;102466.09;5046325;28;20112;-77
2024/01/30 04:50:32;;;;;;;21.47;7.87;;;;;;;18.95;43.49;102467.28;5034416;28;20041;-77
2024/01/30 04:52:57;;;;;;;13.13;6.10;;;;;;;18.96;43.66;102469.03;5049179;28;20074;-77
2024/01/30 04:55:22;;;;;;;14.70;6.90;;;;;;;18.33;44.98;102476.28;5048429;28;20465;-77
2024/01/30 04:57:48;;;;;;;12.57;6.23;;;;;;;18.87;44.02;102470.03;5048117;28;20439;-77
2024/01/30 05:00:14;;;;;;;13.10;5.93;;;;;;;18.38;44.83;102466.50;5050673;28;20192;-77
2024/01/30 05:02:39;;;;;;;14.33;6.73;;;;;;;18.26;45.04;102466.69;5049076;28;20170;-77
2024/01/30 05:05:05;;;;;;;12.73;6.23;;;;;;;18.25;45.76;102475.53;5041181;28;20026;-78
2024/01/30 05:07:30;;;;;;;11.03;5.60;;;;;;;17.27;47.68;102478.63;5039149;28;20529;-77
2024/01/30 05:09:55;;;;;;;13.87;5.97;;;;;;;17.84;46.63;102479.66;5033441;28;20033;-77
2024/01/30 05:12:21;;;;;;;11.77;6.30;;;;;;;17.66;47.22;102476.34;5037860;28;20611;-77
2024/01/30 05:14:46;;;;;;;11.20;5.80;;;;;;;17.49;47.63;102468.66;5045454;28;20064;-77
2024/01/30 05:17:12;;;;;;;12.33;6.57;;;;;;;16.89;49.15;102467.59;5047228;28;20020;-77
2024/01/30 05:19:38;;;;;;;12.07;6.53;;;;;;;17.11;48.45;102470.88;5047070;28;20112;-77
2024/01/30 05:22:04;;;;;;;12.60;5.93;;;;;;;17.67;47.35;102462.25;5039987;28;20170;-77
2024/01/30 05:24:29;;;;;;;11.07;5.77;;;;;;;17.99;46.95;102468.88;5039629;28;20144;-77
2024/01/30 05:26:54;;;;;;;14.67;6.10;;;;;;;17.17;48.29;102466.41;5043870;28;20024;-77
2024/01/30 05:29:20;;;;;;;10.13;6.60;;;;;;;17.94;47.18;102465.41;5043296;28;20596;-77
2024/01/30 05:31:45;;;;;;;14.23;6.60;;;;;;;17.49;48.07;102467.78;5032570;28;20457;-78
2024/01/30 05:34:10;;;;;;;10.63;6.10;;;;;;;17.22;49.21;102475.16;5041402;28;20029;-77
2024/01/30 05:36:36;;;;;;;10.80;6.00;;;;;;;17.66;47.75;102471.06;5033538;28;20017;-77
2024/01/30 05:39:01;;;;;;;12.27;6.30;;;;;;;17.09;49.16;102475.31;5042425;28;20105;-77
2024/01/30 05:41:27;;;;;;;12.03;5.97;;;;;;;17.74;47.69;102474.47;5038310;28;20037;-77
2024/01/30 05:43:52;;;;;;;17.33;7.23;;;;;;;18.14;47.10;102473.06;5055756;28;20068;-77
2024/01/30 05:46:18;;;;;;;12.07;6.27;;;;;;;18.05;46.30;102468.78;5065575;28;20033;-77
2024/01/30 05:48:43;;;;;;;9.57;5.77;;;;;;;18.36;46.29;102473.56;5050137;28;20266;-77
2024/01/30 05:51:09;;;;;;;16.37;6.30;;;;;;;17.95;46.76;102477.75;5050102;28;20041;-77
2024/01/30 05:53:34;;;;;;;9.77;5.87;;;;;;;17.95;46.74;102475.09;5049004;28;20029;-76
2024/01/30 05:56:03;;;;;;;12.23;6.37;;;;;;;17.94;47.50;102481.28;5050740;28;20021;-76
2024/01/30 05:58:30;;;;;;;15.13;6.10;;;;;;;17.89;46.93;102483.13;5048973;28;20560;-76
2024/01/30 06:00:57;;;;;;;11.70;6.47;;;;;;;17.84;47.78;102490.22;5049718;28;20033;-76
2024/01/30 06:03:22;;;;;;;10.17;5.83;;;;;;;17.69;48.18;102491.31;5049376;28;20029;-77
2024/01/30 06:05:48;;;;;;;15.70;6.47;;;;;;;18.17;47.03;102488.00;5048656;28;20444;-76
2024/01/30 06:08:13;;;;;;;12.70;6.80;;;;;;;17.91;48.13;102491.88;5050270;28;20072;-76
2024/01/30 06:10:39;;;;;;;11.37;6.10;;;;;;;18.13;47.33;102492.47;5046532;28;20029;-78
2024/01/30 06:13:04;;;;;;;12.30;6.40;;;;;;;17.67;48.20;102487.78;5044262;28;20037;-77
2024/01/30 06:15:29;;;;;;;13.90;6.40;;;;;;;18.17;47.68;102499.47;5049863;28;20350;-76
2024/01/30 06:17:55;;;;;;;17.87;6.37;;;;;;;17.89;47.85;102496.34;5050156;28;20090;-77
2024/01/30 06:20:21;;;;;;;10.40;5.73;;;;;;;18.03;47.58;102486.44;5048721;28;20036;-77
2024/01/30 06:22:46;;;;;;;8.77;4.97;;;;;;;17.96;47.23;102487.44;5045813;28;20063;-77
2024/01/30 06:25:12;;;;;;;17.17;6.10;;;;;;;18.12;47.22;102482.78;5047041;28;20029;-76
2024/01/30 06:27:37;;;;;;;11.90;6.70;;;;;;;17.87;47.75;102498.13;5047684;28;20044;-76
2024/01/30 06:30:04;;;;;;;12.00;6.30;;;;;;;18.28;46.91;102496.66;5049632;28;20606;-76
2024/01/30 06:32:34;;;;;;;9.73;5.30;;;;;;;17.48;48.88;102490.69;5049042;28;20036;-76
2024/01/30 06:34:59;;;;;;;10.77;5.63;;;;;;;18.27;47.38;102489.59;5048228;28;20063;-76
2024/01/30 06:37:25;;;;;;;11.37;6.43;;;;;;;18.51;46.71;102498.06;5045022;28;20059;-77
2024/01/30 06:39:50;;;;;;;18.27;6.83;;;;;;;18.62;46.85;102501.38;5044797;28;20029;-76
2024/01/30 06:42:15;;;;;;;12.17;6.00;;;;;;;17.21;49.57;102494.53;5045010;28;20029;-77
2024/01/30 06:44:41;;;;;;;12.87;6.20;;;;;;;18.03;47.88;102491.72;5039186;28;20033;-76
2024/01/30 06:47:06;;;;;;;12.43;5.73;;;;;;;17.20;49.09;102503.34;5045362;28;20551;-76
2024/01/30 06:49:32;;;;;;;10.70;5.70;;;;;;;18.00;48.77;102489.16;5047734;28;20025;-77
2024/01/30 06:51:58;;;;;;;10.37;6.17;;;;;;;17.54;48.93;102498.53;5032096;28;20056;-76
2024/01/30 06:54:23;;;;;;;12.50;6.10;;;;;;;18.23;47.66;102493.19;5046218;28;20417;-76
2024/01/30 06:56:49;;;;;;;10.93;5.90;;;;;;;17.67;48.25;102491.34;5044181;28;20111;-76
2024/01/30 06:59:14;;;;;;;10.87;6.27;;;;;;;17.94;48.18;102503.34;5045801;28;20088;-76
2024/01/30 07:01:40;;;;;;;15.50;6.67;;;;;;;17.52;48.77;102502.13;5042282;28;20465;-76
2024/01/30 07:04:05;;;;;;;14.60;6.47;;;;;;;17.76;48.96;102499.16;5047664;28;20024;-76
2024/01/30 07:06:31;;;;;;;13.33;6.73;;;;;;;18.87;46.79;102496.50;5048806;28;20029;-76
2024/01/30 07:08:56;;;;;;;12.73;6.77;;;;;;;18.37;47.25;102507.09;5048363;28;20083;-76
2024/01/30 07:11:23;;;;;;;11.23;5.43;;;;;;;18.44;47.12;102507.88;5048910;28;20071;-77
2024/01/30 07:13:50;;;;;;;11.67;5.80;;;;;;;18.43;47.71;102514.91;5049140;28;20471;-77
2024/01/30 07:16:15;;;;;;;18.90;6.03;;;;;;;18.80;46.61;102511.63;5048552;28;20463;-77
2024/01/30 07:18:41;;;;;;;15.43;6.37;;;;;;;18.97;46.25;102507.84;5047348;28;20033;-77
2024/01/30 07:21:06;;;;;;;9.60;5.37;;;;;;;18.70;47.45;102519.78;5048212;28;20056;-77
2024/01/30 07:23:33;;;;;;;15.53;6.33;;;;;;;19.08;46.03;102516.47;5047376;28;20569;-77
2024/01/30 07:25:59;;;;;;;11.80;6.10;;;;;;;18.40;47.97;102517.63;5048531;28;20024;-77
2024/01/30 07:28:24;;;;;;;11.10;6.00;;;;;;;18.16;48.56;102518.00;5048919;28;20029;-77
2024/01/30 07:30:50;;;;;;;13.00;6.07;;;;;;;17.76;49.75;102520.31;5047845;28;20036;-77
2024/01/30 07:33:16;;;;;;;9.07;5.23;;;;;;;18.64;48.42;102531.34;5048362;28;20067;-77
2024/01/30 07:35:41;;;;;;;11.47;5.37;;;;;;;18.63;47.71;102525.19;5048612;28;20116;-77
2024/01/30 07:38:06;;;;;;;14.30;5.77;;;;;;;18.73;48.30;102531.19;5051863;28;20036;-77
2024/01/30 07:40:33;;;;;;;12.77;6.13;;;;;;;18.98;47.00;102542.25;5052481;28;20462;-77
2024/01/30 07:42:58;;;;;;;9.77;5.00;;;;;;;19.60;45.80;102530.44;5052885;28;20032;-77
2024/01/30 07:45:25;;;;;;;15.90;6.63;;;;;;;19.41;46.08;102529.97;5051639;28;20033;-77
2024/01/30 07:47:51;;;;;;;16.83;7.80;;;;;;;19.28;46.22;102528.47;5051432;28;20032;-77
2024/01/30 07:50:17;;;;;;;10.77;6.43;;;;;;;19.52;45.63;102531.53;5050667;28;20052;-77
2024/01/30 07:52:43;;;;;;;13.00;6.03;;;;;;;18.50;48.35;102549.25;5050700;28;20033;-76
2024/01/30 07:55:09;;;;;;;10.67;5.93;;;;;;;19.21;47.27;102537.44;5051317;28;20171;-77
2024/01/30 07:57:34;;;;;;;13.10;5.10;;;;;;;19.12;47.08;102549.97;5053373;28;20078;-77
2024/01/30 08:00:01;;;;;;;12.27;5.37;;;;;;;18.94;47.50;102540.56;5051400;28;20046;-77
2024/01/30 08:02:26;;;;;;;10.40;5.30;;;;;;;18.73;48.54;102552.38;5052538;28;20095;-77
2024/01/30 08:04:52;;;;;;;10.00;4.93;;;;;;;19.26;47.40;102547.06;5051600;28;20064;-77
2024/01/30 08:07:17;;;;;;;8.67;4.80;;;;;;;18.26;49.68;102551.41;5051582;28;20067;-77
2024/01/30 08:09:43;;;;;;;7.80;5.10;;;;;;;18.36;50.32;102557.41;5052018;28;20401;-77
2024/01/30 08:12:08;;;;;;;11.63;5.97;;;;;;;18.85;49.04;102551.31;5049113;28;20037;-77
2024/01/30 08:14:34;;;;;;;12.33;5.67;;;;;;;19.35;47.30;102548.63;5041274;28;20037;-77
2024/01/30 08:16:59;;;;;;;9.73;5.17;;;;;;;18.63;49.29;102558.75;5064811;28;20432;-77
2024/01/30 08:19:25;;;;;;;14.47;5.60;;;;;;;18.42;50.00;102562.59;5058161;28;20146;-77
2024/01/30 08:21:50;;;;;;;9.67;5.20;;;;;;;18.98;48.55;102573.19;5050875;28;20036;-77
2024/01/30 08:24:15;;;;;;;16.27;5.70;;;;;;;18.69;48.74;102563.94;5051451;28;20029;-73
2024/01/30 08:26:41;;;;;;;9.33;4.90;;;;;;;19.24;47.43;102571.84;5050883;28;20044;-73
2024/01/30 08:29:06;;;;;;;10.70;5.47;;;;;;;19.60;47.07;102566.72;5051145;28;20060;-72
2024/01/30 08:31:32;;;;;;;9.70;5.07;;;;;;;19.48;47.28;102568.72;5046885;28;20044;-72
2024/01/30 08:33:57;;;;;;;10.77;4.20;;;;;;;18.73;49.06;102568.28;5046625;28;20032;-72
2024/01/30 08:36:23;;;;;;;10.67;5.13;;;;;;;18.90;49.05;102575.09;5050204;28;20033;-72
2024/01/30 08:38:48;;;;;;;9.50;4.63;;;;;;;19.02;48.50;102574.88;5050467;28;20166;-72
2024/01/30 08:41:14;;;;;;;25.33;5.80;;;;;;;19.58;47.00;102573.84;5046346;28;20044;-72
2024/01/30 08:43:39;;;;;;;11.53;5.60;;;;;;;18.62;48.79;102572.88;5057350;28;20056;-72
2024/01/30 08:46:05;;;;;;;11.80;4.33;;;;;;;18.20;50.76;102577.94;5050443;28;20128;-72
2024/01/30 08:48:30;;;;;;;12.33;4.67;;;;;;;18.96;48.90;102572.34;5049576;28;20033;-72
2024/01/30 08:50:56;;;;;;;13.97;5.33;;;;;;;18.88;49.06;102577.78;5050863;28;20099;-72
2024/01/30 08:53:22;;;;;;;10.23;5.60;;;;;;;19.86;47.13;102573.28;5049973;28;20534;-72
2024/01/30 08:55:47;;;;;;;19.93;6.23;;;;;;;18.53;50.08;102591.56;5050323;28;20028;-72
2024/01/30 08:58:12;;;;;;;13.13;5.23;;;;;;;18.20;51.03;102572.63;5050550;28;20033;-72
2024/01/30 09:00:38;;;;;;;9.83;4.77;;;;;;;18.62;50.16;102573.75;5050377;28;20473;-72
2024/01/30 09:03:04;;;;;;;12.73;5.27;;;;;;;18.08;51.38;102581.63;5049915;28;20443;-72
2024/01/30 09:05:29;;;;;;;14.17;5.20;;;;;;;19.40;47.81;102578.59;5046573;28;20037;-72
2024/01/30 09:07:55;;;;;;;9.47;4.40;;;;;;;18.92;48.94;102583.91;5050907;28;20071;-72
2024/01/30 09:10:20;;;;;;;8.37;4.93;;;;;;;18.37;49.73;102581.22;5050130;28;20025;-72
2024/01/30 09:12:46;;;;;;;16.17;5.50;;;;;;;18.59;50.07;102576.44;5050619;28;20083;-72
2024/01/30 09:15:12;;;;;;;9.30;5.17;;;;;;;17.91;51.20;102587.09;5051379;28;20070;-72
2024/01/30 09:17:37;;;;;;;9.37;4.83;;;;;;;19.62;47.50;102588.78;5049711;28;20033;-72
2024/01/30 09:20:03;;;;;;;14.67;5.00;;;;;;;18.35;49.05;102593.56;5051496;28;20508;-73
2024/01/30 09:22:31;;;;;;;10.47;4.33;;;;;;;18.63;49.55;102599.34;5051150;28;20041;-72
2024/01/30 09:24:57;;;;;;;9.90;4.87;;;;;;;19.43;47.48;102602.41;5049598;28;20108;-73
2024/01/30 09:27:23;;;;;;;14.77;4.80;;;;;;;19.11;48.11;102595.91;5048152;28;20112;-72
2024/01/30 09:29:48;;;;;;;10.57;4.53;;;;;;;19.19;48.12;102603.72;5046938;28;20328;-72
2024/01/30 09:32:13;;;;;;;10.10;4.53;;;;;;;18.84;48.93;102606.97;5049832;28;20029;-73
2024/01/30 09:34:39;;;;;;;8.53;4.57;;;;;;;18.00;50.99;102608.19;5048111;28;20032;-73
2024/01/30 09:37:05;;;;;;;8.63;5.10;;;;;;;18.93;49.00;102613.03;5050509;28;20397;-73
2024/01/30 09:39:30;;;;;;;15.50;4.72;;;;;;;18.92;48.58;102616.56;5048831;28;20025;-72
2024/01/30 09:42:05;;;;;;;7.45;4.53;;;;;;;19.23;48.49;102621.31;5049271;28;20021;-73
2024/01/30 09:44:35;;;;;;;12.93;4.57;;;;;;;18.12;49.67;102623.91;5026681;28;20526;-73
2024/01/30 09:47:03;;;;;;;14.77;5.47;;;;;;;18.70;50.44;102621.31;5047332;28;20037;-73
2024/01/30 09:49:33;;;;;;;10.57;5.10;;;;;;;19.74;47.47;102623.03;5048094;28;20053;-72
2024/01/30 09:51:58;;;;;;;8.70;4.47;;;;;;;18.93;48.74;102628.91;5048856;28;20116;-73
2024/01/30 09:54:23;;;;;;;9.90;4.10;;;;;;;18.58;49.80;102637.38;5050743;28;20100;-72
2024/01/30 09:56:49;;;;;;;12.57;4.93;;;;;;;18.26;50.25;102651.97;5048480;28;20039;-73
2024/01/30 09:59:15;;;;;;;15.97;4.67;;;;;;;18.68;48.92;102643.41;5042929;28;20026;-73
2024/01/30 10:01:42;;;;;;;12.80;4.40;;;;;;;19.30;47.53;102633.56;5047916;28;20033;-73
2024/01/30 10:04:07;;;;;;;7.47;4.00;;;;;;;18.77;48.29;102637.97;5048863;28;20031;-73
2024/01/30 10:06:34;;;;;;;11.77;3.33;;;;;;;17.95;48.94;102655.00;5044444;28;20018;-73
2024/01/30 10:08:59;;;;;;;5.43;2.97;;;;;;;17.89;48.83;102647.09;5048923;28;20071;-72
2024/01/30 10:11:25;;;;;;;11.17;3.43;;;;;;;18.20;48.38;102646.75;5049906;28;20054;-72
2024/01/30 10:13:50;;;;;;;10.87;3.67;;;;;;;18.10;49.05;102636.25;5048549;28;20381;-73
2024/01/30 10:16:16;;;;;;;5.83;2.47;;;;;;;18.13;48.73;102646.84;5045662;28;20013;-73
2024/01/30 10:18:42;;;;;;;4.70;2.63;;;;;;;17.87;48.63;102644.44;5047817;28;20388;-73
2024/01/30 10:21:08;;;;;;;4.53;2.83;;;;;;;18.55;48.11;102642.75;5046172;28;20024;-73
2024/01/30 10:23:34;;;;;;;4.80;2.60;;;;;;;18.27;48.30;102648.41;5048398;28;20037;-72
2024/01/30 10:25:59;;;;;;;6.00;3.20;;;;;;;18.48;47.65;102642.81;5049208;28;20074;-73
2024/01/30 10:28:29;;;;;;;8.23;3.10;;;;;;;18.62;46.89;102654.97;5048302;28;20396;-73
2024/01/30 10:31:03;;;;;;;8.60;2.23;;;;;;;17.27;49.82;102655.69;5047127;28;20538;-72
2024/01/30 10:33:32;;;;;;;8.33;2.73;;;;;;;17.25;49.52;102675.94;5048330;28;20024;-72
2024/01/30 10:36:02;;;;;;;3.10;1.50;;;;;;;17.31;49.99;102675.91;5049452;28;20051;-72
2024/01/30 10:38:31;;;;;;;3.73;1.00;;;;;;;17.27;49.29;102679.47;5048105;28;20484;-73
2024/01/30 10:41:01;;;;;;;5.40;2.27;;;;;;;17.63;48.46;102677.34;5048785;28;20037;-72
2024/01/30 10:43:35;;;;;;;2.70;1.47;;;;;;;17.08;49.51;102684.03;5049331;28;20039;-72
2024/01/30 10:46:22;;;;;;;4.63;1.90;;;;;;;17.31;48.59;102686.47;5038831;28;20037;-73
2024/01/30 10:48:59;;;;;;;1.57;1.03;;;;;;;16.76;49.33;102675.41;5043808;28;20419;-72
2024/01/30 10:51:27;;;;;;;1.90;1.47;;;;;;;17.71;46.88;102672.88;5048940;28;20048;-73
2024/01/30 10:53:53;;;;;;;4.40;1.50;;;;;;;18.02;46.74;102674.31;5048375;28;20029;-72
2024/01/30 10:56:21;;;;;;;3.30;1.60;;;;;;;17.33;47.05;102687.31;5048786;28;20028;-72
2024/01/30 10:58:48;;;;;;;4.83;2.50;;;;;;;17.09;47.48;102681.38;5045456;28;20484;-73
2024/01/30 11:01:15;;;;;;;3.83;1.67;;;;;;;17.05;47.57;102695.50;5046937;28;20182;-73
2024/01/30 11:03:41;;;;;;;6.27;1.80;;;;;;;16.33;49.51;102677.41;5047932;28;20108;-72
2024/01/30 11:06:12;;;;;;;2.07;1.10;;;;;;;15.92;50.60;102693.41;5047140;28;20452;-72
2024/01/30 11:08:37;;;;;;;8.20;1.70;;;;;;;16.54;49.50;102686.97;5047538;28;20443;-73
2024/01/30 11:11:09;;;;;;;3.63;1.60;;;;;;;16.20;50.18;102687.16;5047351;28;20115;-73
2024/01/30 11:13:35;;;;;;;1.60;1.07;;;;;;;16.26;51.22;102702.94;5052561;28;20040;-73